Terminal Aerodrome Forecast
Issued by NWS

Home | Current Version | Previous Version | Text Only | Print | Product List | Glossary On
Versions: 1 2 3 4 5 6 7 8 9 10 11 12 13 14 15 16 17 18 19 20 21 22 23 24 25 26 27 28 29 30 31 32
000
FTUS41 KBTV 262358 CCB
TAFPBG
TAF COR
KPBG 262358Z 2700/2724 36008KT 1SM -SN BR OVC015
     FM270400 35008KT 1 1/2SM -SN BR OVC010
     FM271000 34010G18KT P6SM SCT015 BKN025
     FM271800 35006KT P6SM OVC050=

USA.gov is the U.S. government's official web portal to all federal, state and local government web resources and services.